Time;durP1;ratioP1;P1;durP2;ratioP2;P2;SDS_P1;SDS_P2;PMS_P1;PMS_P2;Temp;Humidity;BMP_temperature;BMP_pressure;BME280_temperature;BME280_humidity;BME280_pressure;Samples;Min_cycle;Max_cycle;Signal;HPM_P1;HPM_P2
2021/11/07 00:04:16;;;;;;;34.97;18.08;;;3.30;52.10;;;;;;5112344;27;20046;-71
2021/11/07 00:06:52;;;;;;;29.48;16.23;;;3.20;51.20;;;;;;5112850;28;20130;-71
2021/11/07 00:09:26;;;;;;;31.88;16.25;;;3.20;52.20;;;;;;5117359;27;20078;-70
2021/11/07 00:12:00;;;;;;;34.28;16.85;;;3.10;51.60;;;;;;5121718;28;20063;-70
2021/11/07 00:14:30;;;;;;;31.42;15.48;;;3.20;52.20;;;;;;5089165;28;20051;-70
2021/11/07 00:16:59;;;;;;;30.92;16.27;;;3.10;51.10;;;;;;5117092;27;20057;-70
2021/11/07 00:19:33;;;;;;;35.75;17.60;;;3.00;50.40;;;;;;5118053;27;20533;-70
2021/11/07 00:22:08;;;;;;;32.10;17.33;;;3.00;51.30;;;;;;5117771;28;20047;-70
2021/11/07 00:24:42;;;;;;;34.08;17.30;;;2.90;49.90;;;;;;5111203;27;20050;-70
2021/11/07 00:27:23;;;;;;;32.25;17.35;;;2.90;50.10;;;;;;5121935;27;20164;-71
2021/11/07 00:30:04;;;;;;;32.30;16.35;;;2.90;52.00;;;;;;5097073;28;20045;-70
2021/11/07 00:32:41;;;;;;;32.10;15.68;;;2.90;51.90;;;;;;5113421;27;20119;-69
2021/11/07 00:37:53;;;;;;;31.73;16.58;;;3.00;52.60;;;;;;5116969;27;20918;-71
2021/11/07 00:40:28;;;;;;;29.60;16.70;;;3.00;52.60;;;;;;5114850;28;20126;-71
2021/11/07 00:43:01;;;;;;;32.42;16.77;;;3.00;50.60;;;;;;5120603;27;20078;-71
2021/11/07 00:45:37;;;;;;;32.75;15.90;;;2.90;50.80;;;;;;5111392;28;20077;-71
2021/11/07 00:48:19;;;;;;;32.50;17.80;;;2.90;50.80;;;;;;5115365;27;20044;-71
2021/11/07 00:50:58;;;;;;;32.83;16.83;;;2.90;51.90;;;;;;5117912;27;20055;-71
2021/11/07 00:53:41;;;;;;;29.33;14.73;;;2.90;50.70;;;;;;5119572;27;20051;-70
2021/11/07 00:56:21;;;;;;;29.73;16.20;;;2.90;52.00;;;;;;5107778;27;20067;-71
2021/11/07 00:59:03;;;;;;;29.65;16.23;;;2.90;50.80;;;;;;5101886;27;20043;-70
2021/11/07 01:01:37;;;;;;;33.60;16.80;;;2.90;51.90;;;;;;5117432;28;20043;-70
2021/11/07 01:04:10;;;;;;;30.42;15.55;;;2.90;51.80;;;;;;5114392;27;20149;-70
2021/11/07 01:06:41;;;;;;;30.25;16.35;;;3.00;51.90;;;;;;5115574;27;20074;-71
2021/11/07 01:09:13;;;;;;;32.65;16.13;;;3.00;50.30;;;;;;5118832;27;20517;-70
2021/11/07 01:11:44;;;;;;;31.65;16.50;;;2.90;49.90;;;;;;5116552;28;20043;-70
2021/11/07 01:14:16;;;;;;;31.67;15.32;;;2.90;50.60;;;;;;5117062;27;20043;-70
2021/11/07 01:16:44;;;;;;;30.33;15.57;;;3.00;51.80;;;;;;5121505;27;20042;-70
2021/11/07 01:19:17;;;;;;;31.17;15.75;;;3.00;51.30;;;;;;5121487;27;20047;-70
2021/11/07 01:21:47;;;;;;;29.80;14.60;;;2.90;49.70;;;;;;5123346;27;20130;-70
2021/11/07 01:24:19;;;;;;;30.65;15.50;;;3.00;51.00;;;;;;5114478;27;20042;-70
2021/11/07 01:26:51;;;;;;;29.70;14.50;;;3.00;50.60;;;;;;5097670;27;20186;-70
2021/11/07 01:29:23;;;;;;;24.88;12.65;;;2.90;49.60;;;;;;5088898;27;20529;-71
2021/11/07 01:31:55;;;;;;;23.63;13.65;;;2.90;48.60;;;;;;5123002;27;20047;-72
2021/11/07 01:34:36;;;;;;;23.80;13.00;;;2.90;48.60;;;;;;5100198;27;20032;-71
2021/11/07 01:37:13;;;;;;;23.13;13.13;;;2.90;48.50;;;;;;5122534;27;20512;-72
2021/11/07 01:39:49;;;;;;;27.63;12.65;;;2.80;47.50;;;;;;5123134;27;20445;-71
2021/11/07 01:42:26;;;;;;;22.63;13.07;;;2.90;47.50;;;;;;5098891;27;20044;-71
2021/11/07 01:45:02;;;;;;;20.55;11.90;;;2.90;48.00;;;;;;5117672;27;20051;-71
2021/11/07 01:47:32;;;;;;;21.55;12.40;;;2.80;45.90;;;;;;5122056;27;20070;-70
2021/11/07 01:50:05;;;;;;;19.98;11.65;;;2.80;46.80;;;;;;5118611;27;20092;-71
2021/11/07 01:52:39;;;;;;;21.02;11.75;;;2.80;46.40;;;;;;5105351;27;20043;-71
2021/11/07 01:55:24;;;;;;;20.98;11.82;;;2.90;45.80;;;;;;5113372;27;20038;-71
2021/11/07 01:58:02;;;;;;;23.77;11.88;;;2.80;45.30;;;;;;5117295;27;20113;-69
2021/11/07 02:00:33;;;;;;;21.33;12.40;;;2.80;45.60;;;;;;5100616;27;20035;-71
2021/11/07 02:03:11;;;;;;;16.15;10.48;;;2.80;45.50;;;;;;5124920;27;20300;-69
2021/11/07 02:05:39;;;;;;;21.23;12.20;;;2.90;45.90;;;;;;5110805;27;20035;-69
2021/11/07 02:08:10;;;;;;;20.33;10.50;;;3.00;45.40;;;;;;5119848;27;20044;-71
2021/11/07 02:10:44;;;;;;;20.58;12.25;;;2.90;43.80;;;;;;5124313;27;20043;-70
2021/11/07 02:13:13;;;;;;;18.08;11.35;;;2.90;43.70;;;;;;5115818;27;20131;-71
2021/11/07 02:15:41;;;;;;;21.08;12.00;;;2.90;43.40;;;;;;5114077;27;20050;-70
2021/11/07 02:18:16;;;;;;;18.98;10.55;;;2.90;44.10;;;;;;5104849;27;20565;-71
2021/11/07 02:20:52;;;;;;;21.15;12.15;;;2.90;44.50;;;;;;5103871;27;20043;-70
2021/11/07 02:23:25;;;;;;;20.38;11.10;;;2.80;44.50;;;;;;5122828;27;20101;-71
2021/11/07 02:25:56;;;;;;;22.25;11.45;;;2.90;44.20;;;;;;5116619;27;20455;-70
2021/11/07 02:28:27;;;;;;;19.45;10.43;;;2.90;44.30;;;;;;5102722;27;20078;-71
2021/11/07 02:30:58;;;;;;;19.20;11.50;;;2.80;41.60;;;;;;5123866;27;20054;-70
2021/11/07 02:33:26;;;;;;;18.88;10.32;;;2.90;42.80;;;;;;5121006;27;20618;-71
2021/11/07 02:36:06;;;;;;;18.08;10.20;;;2.90;41.60;;;;;;5107698;27;20194;-71
2021/11/07 02:38:35;;;;;;;16.95;9.98;;;2.90;41.60;;;;;;5121818;27;20043;-71
2021/11/07 02:41:07;;;;;;;17.40;9.65;;;2.90;41.30;;;;;;5119015;27;20070;-71
2021/11/07 02:43:40;;;;;;;16.38;9.80;;;2.90;41.70;;;;;;5116057;27;20134;-71
2021/11/07 02:46:15;;;;;;;;;;;2.80;41.30;;;;;;5112446;27;20080;-70
2021/11/07 02:48:44;;;;;;;17.20;10.05;;;2.80;41.60;;;;;;5124180;27;19928;-71
2021/11/07 02:51:13;;;;;;;17.70;9.93;;;2.80;43.20;;;;;;5117201;27;20050;-71
2021/11/07 02:53:42;;;;;;;18.77;10.82;;;2.90;43.50;;;;;;5097050;27;20036;-71
2021/11/07 02:56:12;;;;;;;19.77;10.68;;;2.90;43.30;;;;;;5092183;27;20062;-71
2021/11/07 02:58:41;;;;;;;20.70;11.43;;;2.90;43.50;;;;;;5115574;27;20051;-71
2021/11/07 03:01:11;;;;;;;21.52;11.27;;;2.90;43.20;;;;;;5119185;27;20437;-70
2021/11/07 03:03:39;;;;;;;16.45;10.05;;;2.90;43.20;;;;;;5121943;27;20133;-71
2021/11/07 03:06:07;;;;;;;21.75;12.07;;;2.90;43.60;;;;;;5106771;27;20134;-71
2021/11/07 03:08:42;;;;;;;20.38;10.85;;;2.80;43.90;;;;;;5100430;27;20120;-71
2021/11/07 03:11:12;;;;;;;20.38;11.23;;;2.80;44.20;;;;;;5114904;27;20578;-71
2021/11/07 03:13:40;;;;;;;19.63;10.80;;;2.80;43.90;;;;;;5115916;27;20123;-70
2021/11/07 03:16:12;;;;;;;18.88;10.18;;;2.80;43.80;;;;;;5092237;27;20051;-70
2021/11/07 03:18:41;;;;;;;18.23;10.55;;;2.80;43.60;;;;;;5114603;27;20040;-71
2021/11/07 03:21:12;;;;;;;18.42;11.30;;;2.70;43.20;;;;;;5116305;27;20047;-70
2021/11/07 03:23:49;;;;;;;20.73;11.65;;;2.70;43.70;;;;;;5096353;27;20548;-71
2021/11/07 03:26:22;;;;;;;19.77;10.93;;;2.70;44.00;;;;;;5086091;27;20912;-70
2021/11/07 03:28:53;;;;;;;19.08;10.95;;;2.60;44.00;;;;;;5112802;27;20059;-71
2021/11/07 03:31:30;;;;;;;19.65;11.25;;;2.60;44.40;;;;;;5102568;28;20452;-70
2021/11/07 03:34:00;;;;;;;17.45;10.70;;;2.50;44.50;;;;;;5091334;27;20498;-70
2021/11/07 03:36:36;;;;;;;18.48;10.65;;;2.50;44.80;;;;;;5111176;27;20150;-71
2021/11/07 03:39:06;;;;;;;19.25;10.73;;;2.50;45.20;;;;;;5114829;27;20040;-71
2021/11/07 03:41:34;;;;;;;20.48;11.20;;;2.40;45.00;;;;;;5117359;27;20108;-70
2021/11/07 03:44:02;;;;;;;17.92;10.00;;;2.40;45.60;;;;;;5112978;27;20047;-71
2021/11/07 03:46:30;;;;;;;17.80;10.13;;;2.40;46.00;;;;;;5112614;27;20040;-70
2021/11/07 03:49:04;;;;;;;18.50;11.60;;;2.40;46.40;;;;;;5117501;27;20039;-70
2021/11/07 03:51:33;;;;;;;18.88;10.55;;;2.40;46.60;;;;;;5117413;27;20118;-70
2021/11/07 03:54:01;;;;;;;18.52;10.38;;;2.40;46.30;;;;;;5118031;27;20076;-70
2021/11/07 03:56:32;;;;;;;20.00;12.30;;;2.30;46.40;;;;;;5107430;27;20414;-71
2021/11/07 03:59:05;;;;;;;23.30;11.63;;;2.30;47.20;;;;;;5123400;27;20040;-72
2021/11/07 04:01:36;;;;;;;22.77;10.95;;;2.30;46.70;;;;;;5119645;27;20043;-71
2021/11/07 04:04:05;;;;;;;19.15;11.07;;;2.30;47.00;;;;;;5110701;27;20546;-71
2021/11/07 04:06:36;;;;;;;20.13;11.27;;;2.20;46.30;;;;;;5117002;27;20130;-72
2021/11/07 04:09:08;;;;;;;18.60;11.18;;;2.20;46.50;;;;;;5115397;28;20517;-71
2021/11/07 04:11:40;;;;;;;19.13;11.65;;;2.20;47.20;;;;;;5115064;28;20058;-70
2021/11/07 04:14:11;;;;;;;19.40;11.50;;;2.20;47.50;;;;;;5073052;28;20142;-70
2021/11/07 04:16:39;;;;;;;20.60;11.82;;;2.30;48.00;;;;;;5072705;28;20070;-71
2021/11/07 04:19:18;;;;;;;19.27;10.63;;;2.30;47.00;;;;;;5113733;27;20054;-70
2021/11/07 04:21:49;;;;;;;20.23;11.65;;;2.30;46.70;;;;;;5119729;27;20138;-70
2021/11/07 04:24:20;;;;;;;20.27;12.07;;;2.20;47.00;;;;;;5115513;27;20683;-70
2021/11/07 04:26:49;;;;;;;20.50;12.25;;;2.30;47.00;;;;;;5093203;28;20133;-71
2021/11/07 04:29:18;;;;;;;22.45;11.68;;;2.30;47.10;;;;;;5106456;27;20074;-71
2021/11/07 04:31:46;;;;;;;19.38;11.00;;;2.20;46.10;;;;;;5118562;27;20047;-71
2021/11/07 04:34:16;;;;;;;20.77;12.07;;;2.20;45.80;;;;;;5115975;27;20062;-71
2021/11/07 04:36:45;;;;;;;20.13;12.45;;;2.20;46.90;;;;;;5116642;28;20046;-71
2021/11/07 04:39:18;;;;;;;21.30;12.48;;;2.10;46.60;;;;;;5115870;27;20039;-71
2021/11/07 04:41:48;;;;;;;21.30;12.07;;;2.20;47.30;;;;;;5099225;28;20070;-70
2021/11/07 04:44:17;;;;;;;18.50;11.38;;;2.10;46.40;;;;;;5115799;28;20150;-70
2021/11/07 04:46:45;;;;;;;19.23;11.52;;;2.00;47.50;;;;;;5107985;28;20074;-70
2021/11/07 04:49:13;;;;;;;19.67;11.32;;;1.90;47.40;;;;;;5123379;27;20086;-70
2021/11/07 04:51:41;;;;;;;18.23;10.82;;;1.90;47.80;;;;;;5119657;27;20134;-70
2021/11/07 04:54:12;;;;;;;20.92;12.27;;;1.90;47.80;;;;;;5117823;27;20075;-70
2021/11/07 04:56:42;;;;;;;20.17;11.60;;;1.90;47.70;;;;;;5120261;27;20061;-70
2021/11/07 04:59:10;;;;;;;17.50;10.68;;;1.90;48.00;;;;;;5119337;27;20042;-70
2021/11/07 05:01:44;;;;;;;19.52;12.00;;;1.90;47.80;;;;;;5120915;27;20093;-70
2021/11/07 05:04:15;;;;;;;18.58;11.50;;;1.90;47.80;;;;;;5120079;27;20100;-70
2021/11/07 05:06:43;;;;;;;17.80;11.05;;;1.90;47.80;;;;;;5114546;27;20039;-70
2021/11/07 05:09:15;;;;;;;19.55;13.32;;;1.90;47.60;;;;;;5120812;27;20066;-70
2021/11/07 05:11:45;;;;;;;21.55;12.25;;;1.90;48.10;;;;;;5124337;27;20121;-70
2021/11/07 05:14:14;;;;;;;19.58;12.20;;;1.80;47.60;;;;;;5117513;27;20155;-70
2021/11/07 05:16:45;;;;;;;19.88;11.75;;;1.80;48.40;;;;;;5116615;27;20118;-70
2021/11/07 05:19:16;;;;;;;20.23;12.30;;;1.80;48.40;;;;;;5095500;27;20118;-70
2021/11/07 05:21:46;;;;;;;23.80;12.27;;;1.80;48.00;;;;;;5117896;27;20043;-70
2021/11/07 05:24:15;;;;;;;19.75;12.02;;;1.80;47.70;;;;;;5115313;27;20047;-70
2021/11/07 05:26:45;;;;;;;20.60;11.80;;;1.80;47.70;;;;;;5113442;27;20091;-70
2021/11/07 05:29:13;;;;;;;17.33;11.57;;;1.80;47.70;;;;;;5123666;27;20027;-70
2021/11/07 05:31:45;;;;;;;19.15;11.77;;;1.70;47.60;;;;;;5122644;27;20039;-71
2021/11/07 05:34:14;;;;;;;19.90;11.75;;;1.70;48.00;;;;;;5114002;27;20794;-71
2021/11/07 05:36:46;;;;;;;19.65;11.57;;;1.70;48.10;;;;;;5118016;27;20055;-70
2021/11/07 05:39:20;;;;;;;18.15;10.65;;;1.70;47.60;;;;;;5101923;27;20055;-70
2021/11/07 05:41:52;;;;;;;18.30;10.68;;;1.70;47.80;;;;;;5110339;27;20047;-70
2021/11/07 05:44:24;;;;;;;17.77;11.38;;;1.70;48.30;;;;;;5117667;27;20085;-70
2021/11/07 05:46:56;;;;;;;16.88;9.90;;;1.70;48.40;;;;;;5114095;27;20542;-70
2021/11/07 05:49:26;;;;;;;19.05;9.93;;;1.70;48.20;;;;;;5122890;27;20044;-70
2021/11/07 05:51:55;;;;;;;16.63;9.93;;;1.70;48.40;;;;;;5121656;27;20047;-70
2021/11/07 05:54:24;;;;;;;16.05;10.60;;;1.70;48.40;;;;;;5113939;27;20411;-70
2021/11/07 05:56:52;;;;;;;15.55;10.18;;;1.80;48.50;;;;;;5115579;27;20093;-70
2021/11/07 05:59:20;;;;;;;15.90;9.68;;;1.80;47.70;;;;;;5119555;27;20043;-69
2021/11/07 06:02:09;;;;;;;16.45;10.10;;;1.80;46.80;;;;;;5116635;27;20410;-71
2021/11/07 06:04:38;;;;;;;19.08;10.88;;;1.80;46.20;;;;;;5115335;27;20143;-71
2021/11/07 06:07:06;;;;;;;19.52;10.52;;;1.80;45.40;;;;;;5096466;27;20039;-71
2021/11/07 06:09:36;;;;;;;17.38;10.68;;;1.80;45.20;;;;;;5096346;27;20074;-70
2021/11/07 06:12:05;;;;;;;16.63;9.98;;;1.90;45.70;;;;;;5127436;27;20061;-70
2021/11/07 06:14:33;;;;;;;16.52;9.88;;;1.90;45.50;;;;;;5119704;27;20671;-70
2021/11/07 06:17:03;;;;;;;16.92;10.15;;;1.90;44.80;;;;;;5115842;27;20043;-70
2021/11/07 06:19:33;;;;;;;16.27;9.60;;;2.00;45.30;;;;;;5105021;27;20067;-70
2021/11/07 06:22:06;;;;;;;;;;;2.00;45.00;;;;;;5117568;27;20042;-71
2021/11/07 06:24:34;;;;;;;18.77;11.75;;;2.10;44.60;;;;;;5115369;27;20394;-70
2021/11/07 06:27:06;;;;;;;20.08;11.50;;;2.10;44.80;;;;;;5104804;27;20483;-70
2021/11/07 06:29:39;;;;;;;20.48;12.68;;;2.20;45.00;;;;;;5119175;27;20040;-71
2021/11/07 06:32:08;;;;;;;22.77;12.60;;;2.20;44.80;;;;;;5097398;27;20122;-70
2021/11/07 06:34:39;;;;;;;21.73;11.60;;;2.20;45.10;;;;;;5114539;27;20070;-70
2021/11/07 06:37:10;;;;;;;24.27;13.15;;;2.30;45.00;;;;;;5114461;27;20039;-70
2021/11/07 06:39:42;;;;;;;21.83;12.73;;;2.30;44.60;;;;;;5091892;27;20097;-71
2021/11/07 06:42:15;;;;;;;20.27;12.23;;;2.30;44.30;;;;;;5122926;27;20039;-70
2021/11/07 06:44:43;;;;;;;22.02;12.00;;;2.40;43.70;;;;;;5117185;27;20090;-70
2021/11/07 06:47:12;;;;;;;20.17;11.43;;;2.40;42.50;;;;;;5114706;27;20050;-70
2021/11/07 06:49:46;;;;;;;20.98;12.07;;;2.40;42.70;;;;;;5127214;27;20032;-70
2021/11/07 06:52:15;;;;;;;20.23;10.95;;;2.40;42.40;;;;;;5098751;27;20150;-70
2021/11/07 06:54:47;;;;;;;18.52;11.02;;;2.60;42.50;;;;;;5114674;27;20055;-72
2021/11/07 06:57:15;;;;;;;18.98;12.00;;;2.60;41.60;;;;;;5117282;27;20376;-71
2021/11/07 06:59:44;;;;;;;19.73;11.18;;;2.80;40.40;;;;;;5117100;27;20075;-71
2021/11/07 07:02:15;;;;;;;18.88;11.52;;;2.90;40.50;;;;;;5116316;27;20047;-71
2021/11/07 07:04:49;;;;;;;19.90;10.85;;;2.90;38.80;;;;;;5117938;27;20054;-71
2021/11/07 07:07:18;;;;;;;18.92;11.18;;;2.90;39.20;;;;;;5101438;27;20040;-71
2021/11/07 07:09:56;;;;;;;16.67;9.30;;;3.00;37.30;;;;;;5122118;27;20031;-71
2021/11/07 07:12:29;;;;;;;15.52;9.38;;;3.20;37.20;;;;;;5124057;27;20039;-71
2021/11/07 07:15:04;;;;;;;17.05;9.93;;;3.30;36.40;;;;;;5106843;27;20507;-71
2021/11/07 07:17:42;;;;;;;15.80;9.00;;;3.40;35.30;;;;;;5095459;27;20066;-71
2021/11/07 07:20:38;;;;;;;15.82;8.93;;;3.50;34.20;;;;;;5120613;27;20084;-71
2021/11/07 07:23:26;;;;;;;;;;;3.50;32.60;;;;;;5113753;27;20054;-71
2021/11/07 07:26:18;;;;;;;17.42;10.02;;;3.60;32.70;;;;;;5109984;27;20382;-71
2021/11/07 07:29:27;;;;;;;14.73;8.45;;;3.70;32.30;;;;;;5124293;27;20043;-71
2021/11/07 07:32:22;;;;;;;18.83;10.35;;;3.70;31.70;;;;;;5118927;27;20395;-71
2021/11/07 07:34:55;;;;;;;15.30;9.02;;;3.90;31.40;;;;;;5111088;27;20050;-71
2021/11/07 07:37:24;;;;;;;15.93;8.80;;;4.10;29.90;;;;;;5100776;27;20402;-71
2021/11/07 07:39:52;;;;;;;14.63;9.15;;;4.20;29.20;;;;;;5121524;27;20117;-71
2021/11/07 07:42:26;;;;;;;13.48;8.55;;;4.30;27.40;;;;;;5113936;27;20046;-71
2021/11/07 07:44:54;;;;;;;14.20;8.30;;;4.60;26.20;;;;;;5116110;27;20525;-71
2021/11/07 07:47:25;;;;;;;14.73;8.88;;;4.80;24.30;;;;;;5115424;27;20122;-70
2021/11/07 07:49:53;;;;;;;14.10;9.20;;;4.70;24.20;;;;;;5117824;27;20050;-70
2021/11/07 07:52:27;;;;;;;14.07;8.93;;;4.70;24.30;;;;;;5120588;27;20075;-70
2021/11/07 07:54:58;;;;;;;13.07;8.43;;;4.70;24.40;;;;;;5111163;27;20051;-70
2021/11/07 07:57:26;;;;;;;17.15;9.65;;;4.70;25.90;;;;;;5097113;28;20043;-70
2021/11/07 07:59:59;;;;;;;14.02;9.35;;;4.60;25.60;;;;;;5117916;27;20122;-70
2021/11/07 08:02:28;;;;;;;14.10;9.32;;;4.60;26.10;;;;;;5118199;27;20035;-71
2021/11/07 08:04:59;;;;;;;14.07;9.57;;;4.70;26.20;;;;;;5109320;27;20817;-70
2021/11/07 08:07:29;;;;;;;13.77;9.13;;;4.70;26.00;;;;;;5113550;28;20047;-70
2021/11/07 08:09:59;;;;;;;14.23;9.07;;;4.80;25.40;;;;;;5117249;28;20059;-70
2021/11/07 08:12:29;;;;;;;16.13;9.02;;;4.90;26.30;;;;;;5124422;27;20152;-70
2021/11/07 08:15:00;;;;;;;17.17;9.60;;;5.00;25.40;;;;;;5106927;28;20043;-71
2021/11/07 08:17:30;;;;;;;15.90;9.07;;;5.00;24.40;;;;;;5118150;27;20048;-71
2021/11/07 08:19:59;;;;;;;17.50;9.65;;;5.00;23.00;;;;;;5118352;27;20038;-71
2021/11/07 08:22:31;;;;;;;16.33;9.23;;;5.00;23.10;;;;;;5115430;27;20111;-71
2021/11/07 08:25:04;;;;;;;15.88;9.32;;;5.20;23.20;;;;;;5115802;27;20878;-70
2021/11/07 08:27:34;;;;;;;16.20;9.48;;;5.30;22.00;;;;;;5119535;27;20056;-70
2021/11/07 08:30:03;;;;;;;15.05;9.20;;;5.30;22.60;;;;;;5117598;27;20035;-70
2021/11/07 08:32:31;;;;;;;16.58;9.55;;;5.40;23.00;;;;;;5127949;27;20047;-70
2021/11/07 08:35:01;;;;;;;13.40;9.48;;;5.40;22.70;;;;;;5117921;27;20051;-71
2021/11/07 08:37:41;;;;;;;14.48;9.32;;;5.40;23.30;;;;;;5114468;27;20526;-71
2021/11/07 08:40:16;;;;;;;15.68;9.32;;;5.40;22.20;;;;;;5121639;27;20414;-71
2021/11/07 08:42:50;;;;;;;13.48;8.25;;;5.50;22.60;;;;;;5126035;27;20051;-71
2021/11/07 08:54:33;;;;;;;18.80;8.43;;;5.60;21.60;;;;;;5121014;27;20035;-71
2021/11/07 09:02:52;;;;;;;14.85;8.73;;;6.00;19.20;;;;;;5126656;27;20070;-70
2021/11/07 09:05:25;;;;;;;13.40;7.75;;;6.20;18.80;;;;;;5114429;27;20279;-70
2021/11/07 09:08:01;;;;;;;14.05;8.18;;;6.40;18.50;;;;;;5121089;27;20085;-70
2021/11/07 09:10:37;;;;;;;12.32;7.65;;;6.50;16.00;;;;;;5124614;27;20050;-70
2021/11/07 09:13:09;;;;;;;11.35;7.70;;;6.60;15.10;;;;;;5117853;27;20103;-70
2021/11/07 09:15:45;;;;;;;13.10;6.80;;;6.70;13.60;;;;;;5109909;27;20197;-70
2021/11/07 09:18:14;;;;;;;10.93;6.82;;;6.80;12.20;;;;;;5124409;27;20062;-71
2021/11/07 09:20:48;;;;;;;11.30;6.25;;;6.90;11.00;;;;;;5121399;27;20532;-71
2021/11/07 09:23:25;;;;;;;8.52;5.40;;;7.10;9.50;;;;;;5121143;27;20055;-71
2021/11/07 09:26:13;;;;;;;9.70;5.82;;;7.20;8.40;;;;;;5113292;27;20058;-71
2021/11/07 09:28:48;;;;;;;5.72;3.83;;;7.30;6.20;;;;;;5123126;27;20043;-70
2021/11/07 09:31:31;;;;;;;8.07;4.95;;;7.30;1.90;;;;;;5121133;27;20104;-70
2021/11/07 09:34:17;;;;;;;8.27;3.50;;;7.40;2.30;;;;;;5121962;27;20046;-72
2021/11/07 09:36:49;;;;;;;5.80;3.95;;;7.40;1.40;;;;;;5099242;27;20058;-71
2021/11/07 09:39:28;;;;;;;5.95;3.72;;;7.50;1.50;;;;;;5120726;27;20078;-70
2021/11/07 09:44:44;;;;;;;9.05;3.97;;;7.80;1.00;;;;;;5111834;27;20047;-71
2021/11/07 09:47:33;;;;;;;6.43;3.93;;;8.00;1.00;;;;;;5119003;27;20554;-73
2021/11/07 09:50:02;;;;;;;7.73;4.80;;;8.20;1.00;;;;;;5123970;27;20325;-72
2021/11/07 09:52:41;;;;;;;;;;;8.30;1.00;;;;;;5128632;27;20373;-71
2021/11/07 09:55:09;;;;;;;6.55;4.32;;;8.30;1.00;;;;;;5111070;27;19923;-72
2021/11/07 09:57:39;;;;;;;5.95;3.47;;;8.20;1.00;;;;;;5118736;27;20044;-70
2021/11/07 10:00:13;;;;;;;9.80;4.57;;;8.20;1.00;;;;;;5123166;27;20092;-72
2021/11/07 10:02:42;;;;;;;6.20;3.42;;;8.20;1.00;;;;;;5117804;27;20072;-72
2021/11/07 10:05:14;;;;;;;6.65;4.07;;;8.40;1.00;;;;;;5110722;27;20048;-71
2021/11/07 10:07:44;;;;;;;6.03;4.07;;;8.20;1.00;;;;;;5121935;27;20103;-71
2021/11/07 10:10:19;;;;;;;5.40;3.72;;;8.30;1.00;;;;;;5119839;27;20078;-71
2021/11/07 10:12:54;;;;;;;6.97;4.10;;;8.20;1.00;;;;;;5120921;27;20498;-71
2021/11/07 10:15:43;;;;;;;5.93;3.92;;;8.30;1.00;;;;;;5113659;27;20046;-71
2021/11/07 10:18:14;;;;;;;5.47;3.90;;;8.30;1.00;;;;;;5121859;27;20867;-71
2021/11/07 10:20:47;;;;;;;4.90;3.70;;;8.40;1.00;;;;;;5119091;27;20080;-71
2021/11/07 10:23:26;;;;;;;7.43;4.57;;;8.60;1.00;;;;;;5118476;27;20054;-72
2021/11/07 10:26:06;;;;;;;6.75;4.63;;;8.70;1.00;;;;;;5109086;27;20043;-71
2021/11/07 10:28:42;;;;;;;6.00;4.15;;;8.80;1.00;;;;;;5115649;27;20574;-71
2021/11/07 10:31:16;;;;;;;5.25;3.75;;;8.90;1.00;;;;;;5120266;27;20040;-71
2021/11/07 10:34:01;;;;;;;6.07;4.07;;;8.90;1.00;;;;;;5115878;27;20047;-71
2021/11/07 10:37:00;;;;;;;4.82;3.55;;;9.00;1.00;;;;;;5094105;27;20042;-72
2021/11/07 10:39:48;;;;;;;7.22;4.13;;;8.90;1.00;;;;;;5118975;27;20051;-72
2021/11/07 10:42:29;;;;;;;7.50;4.50;;;9.10;1.00;;;;;;5122186;27;20035;-72
2021/11/07 10:45:17;;;;;;;7.45;3.85;;;8.90;1.00;;;;;;5110491;27;20109;-70
2021/11/07 10:53:51;;;;;;;6.88;3.33;;;9.30;1.00;;;;;;5116513;27;19928;-71
2021/11/07 10:56:20;;;;;;;5.15;3.83;;;9.30;1.00;;;;;;5108877;27;20039;-71
2021/11/07 10:58:48;;;;;;;5.28;3.08;;;9.40;1.00;;;;;;5117676;27;20114;-71
2021/11/07 11:01:21;;;;;;;5.03;3.17;;;9.70;1.00;;;;;;5115768;27;20047;-71
2021/11/07 11:03:59;;;;;;;5.95;3.53;;;10.00;1.00;;;;;;5110812;27;20078;-71
2021/11/07 11:06:28;;;;;;;5.95;3.53;;;10.10;1.00;;;;;;5107772;27;20632;-71
2021/11/07 11:09:01;;;;;;;5.53;3.55;;;10.00;1.00;;;;;;5078586;27;20527;-70
2021/11/07 11:11:34;;;;;;;4.95;3.45;;;10.10;1.00;;;;;;5116699;27;20665;-70
2021/11/07 11:14:14;;;;;;;7.20;3.15;;;10.10;1.00;;;;;;5123950;27;20055;-70
2021/11/07 11:16:52;;;;;;;4.85;3.63;;;9.80;1.00;;;;;;5111453;27;20563;-71
2021/11/07 11:19:36;;;;;;;5.30;3.50;;;10.10;1.00;;;;;;5117840;27;20054;-71
2021/11/07 11:22:24;;;;;;;4.97;3.70;;;10.40;1.00;;;;;;5117972;27;20035;-71
2021/11/07 11:25:13;;;;;;;5.13;3.15;;;10.60;1.00;;;;;;5101561;27;20051;-71
2021/11/07 11:28:01;;;;;;;4.70;3.55;;;10.60;1.00;;;;;;5116421;27;20070;-71
2021/11/07 11:33:27;;;;;;;5.95;3.80;;;10.40;1.00;;;;;;5109618;27;20044;-72
2021/11/07 11:36:07;;;;;;;4.18;3.15;;;10.50;1.00;;;;;;5104031;27;20054;-71
2021/11/07 11:38:40;;;;;;;6.15;3.78;;;10.50;1.00;;;;;;5118996;27;20178;-71
2021/11/07 11:41:13;;;;;;;5.22;3.38;;;10.50;1.00;;;;;;5120661;27;20055;-71
2021/11/07 11:43:47;;;;;;;6.03;3.88;;;10.80;1.00;;;;;;5094476;27;20047;-70
2021/11/07 11:46:24;;;;;;;6.15;3.33;;;10.80;1.00;;;;;;5092784;27;20055;-71
2021/11/07 11:55:10;;;;;;;1.77;1.48;;;10.80;1.00;;;;;;5028470;28;20063;-71
2021/11/07 12:00:42;;;;;;;2.25;1.00;;;11.20;1.00;;;;;;5089356;27;20566;-71
2021/11/07 12:03:18;;;;;;;1.88;0.80;;;11.20;1.00;;;;;;5114104;27;20044;-71
2021/11/07 12:05:51;;;;;;;2.03;0.80;;;11.20;1.00;;;;;;5110035;27;20043;-71
2021/11/07 12:08:34;;;;;;;1.40;0.70;;;11.20;1.00;;;;;;5118960;27;20054;-71
2021/11/07 12:11:28;;;;;;;1.77;0.73;;;11.00;1.00;;;;;;5112376;28;20058;-71
2021/11/07 12:14:15;;;;;;;1.67;0.90;;;10.90;1.00;;;;;;5087450;28;20570;-74
2021/11/07 12:16:52;;;;;;;;;;;10.80;1.00;;;;;;5076382;28;20031;-73
2021/11/07 12:19:37;;;;;;;2.23;1.20;;;10.90;1.00;;;;;;5094877;27;19923;-71
2021/11/07 12:22:12;;;;;;;1.10;0.80;;;10.90;1.00;;;;;;5082701;27;20077;-73
2021/11/07 12:25:08;;;;;;;2.42;1.00;;;10.90;1.00;;;;;;5075994;27;20522;-72
2021/11/07 12:27:49;;;;;;;2.78;1.00;;;10.90;1.00;;;;;;5073226;28;20563;-71
2021/11/07 12:30:24;;;;;;;0.93;0.70;;;10.80;1.00;;;;;;5111430;28;20114;-71
2021/11/07 12:33:07;;;;;;;1.63;1.10;;;10.80;1.00;;;;;;5116038;27;20745;-71
2021/11/07 12:35:42;;;;;;;1.30;0.90;;;10.60;2.50;;;;;;5108857;27;20100;-72
2021/11/07 12:41:23;;;;;;;2.22;1.00;;;10.40;4.30;;;;;;5104152;27;20104;-71
2021/11/07 12:43:59;;;;;;;1.33;0.90;;;10.40;4.30;;;;;;5107689;28;20048;-71
2021/11/07 12:46:37;;;;;;;1.60;0.90;;;10.40;5.50;;;;;;5105437;27;20043;-71
2021/11/07 12:49:07;;;;;;;2.40;0.80;;;10.20;7.10;;;;;;5113080;27;20040;-71
2021/11/07 12:51:42;;;;;;;4.28;1.25;;;10.10;7.80;;;;;;5098322;28;20137;-72
2021/11/07 12:54:15;;;;;;;0.95;0.60;;;10.20;8.80;;;;;;5091483;28;20055;-70
2021/11/07 12:56:54;;;;;;;2.75;1.10;;;10.00;10.00;;;;;;5111434;27;20706;-72
2021/11/07 12:59:30;;;;;;;1.77;1.00;;;10.00;9.90;;;;;;5120272;27;20402;-72
2021/11/07 13:02:12;;;;;;;3.05;1.38;;;10.00;11.40;;;;;;5114359;27;20047;-71
2021/11/07 13:04:45;;;;;;;4.03;1.00;;;9.90;14.50;;;;;;5109390;28;20050;-74
2021/11/07 13:07:21;;;;;;;1.80;0.93;;;9.90;16.80;;;;;;5116929;28;20035;-71
2021/11/07 13:10:00;;;;;;;2.03;1.42;;;9.70;17.20;;;;;;5116340;27;20093;-71
2021/11/07 13:12:34;;;;;;;3.90;1.50;;;9.70;19.20;;;;;;5117747;27;20423;-71
2021/11/07 13:15:24;;;;;;;6.15;1.95;;;9.70;19.50;;;;;;5113141;27;20126;-71
2021/11/07 13:18:34;;;;;;;4.00;1.40;;;9.70;19.10;;;;;;5114175;27;20032;-71
2021/11/07 13:27:02;;;;;;;3.25;1.10;;;10.10;16.40;;;;;;5113553;27;20043;-71
2021/11/07 13:29:48;;;;;;;1.80;0.93;;;9.90;15.20;;;;;;5115184;27;20051;-72
2021/11/07 13:32:30;;;;;;;2.10;0.90;;;9.80;15.00;;;;;;5117181;27;20069;-72
2021/11/07 13:35:08;;;;;;;1.60;0.90;;;9.80;16.30;;;;;;5115968;27;20502;-71
2021/11/07 13:37:47;;;;;;;2.53;1.13;;;9.80;17.20;;;;;;5095515;27;20043;-71
2021/11/07 13:40:23;;;;;;;1.52;0.98;;;9.70;17.40;;;;;;5116140;27;20047;-71
2021/11/07 13:43:05;;;;;;;2.65;1.45;;;9.70;17.50;;;;;;5109397;27;20051;-72
2021/11/07 13:45:39;;;;;;;1.90;0.90;;;9.70;17.70;;;;;;5083415;27;20483;-71
2021/11/07 13:48:21;;;;;;;1.10;0.80;;;9.70;18.00;;;;;;5113017;27;20043;-71
2021/11/07 13:50:52;;;;;;;1.65;0.80;;;9.70;18.20;;;;;;5117553;27;20062;-72
2021/11/07 13:53:22;;;;;;;2.05;1.00;;;9.70;18.60;;;;;;5104203;27;20043;-71
2021/11/07 13:55:52;;;;;;;1.40;0.75;;;9.60;19.00;;;;;;5110527;27;20051;-71
2021/11/07 13:58:25;;;;;;;1.98;0.90;;;9.60;19.00;;;;;;5123167;27;20134;-71
2021/11/07 14:00:55;;;;;;;1.35;0.88;;;9.60;19.00;;;;;;5121809;27;20048;-72
2021/11/07 14:03:28;;;;;;;2.28;0.80;;;9.60;19.30;;;;;;5118080;27;20047;-72
2021/11/07 14:06:03;;;;;;;1.90;1.15;;;9.60;20.50;;;;;;5112243;27;20078;-70
2021/11/07 14:08:41;;;;;;;1.55;1.00;;;9.50;21.10;;;;;;5122174;27;20216;-70
2021/11/07 14:11:09;;;;;;;1.23;0.95;;;9.50;21.60;;;;;;5095747;27;20433;-71
2021/11/07 14:13:46;;;;;;;1.38;0.90;;;9.40;21.90;;;;;;5116141;27;20161;-70